Townville, South Carolina
Current Conditions -  °F | °C
As of 7:54 AM on Thursday 23 Oct 2014 (Local Time) from KCEU Reporting Station
Clear Clear  
Wind Chill: 44°   Ceiling: Unl
Heat Index: 46°   Visibility: 10mi
Dew Point: 39°   Wind: 5mph
Humidity: 76%   Direction: 310°NW
Pressure: 30.11"   Gusts: NA
Location:  34.56°N, 82.9°W
Report Text: KCEU 231154Z AUTO 31004KT 10SM CLR 08/04 A3011 RMK AO2 SLP194 T00780039 10094 20067 53001
Loading
Personal Weather Stations






























Interactive Weather Map
Tropical Storm Tracking
New forecast layout! Learn more

10-Day Weather Forecast

Advertisements
Track Severe Weather on mobile